Time;durP1;ratioP1;P1;durP2;ratioP2;P2;SDS_P1;SDS_P2;PMS_P1;PMS_P2;Temp;Humidity;BMP_temperature;BMP_pressure;BME280_temperature;BME280_humidity;BME280_pressure;Samples;Min_cycle;Max_cycle;Signal;HPM_P1;HPM_P2
2023/01/08 00:01:08;;;;;;;5.70;1.10;;;;;;;8.16;100.00;100351.44;6158763;23;20014;-77
2023/01/08 00:03:35;;;;;;;3.08;1.00;;;;;;;8.11;100.00;100352.00;6160459;23;20041;-76
2023/01/08 00:06:08;;;;;;;4.05;1.20;;;;;;;8.09;100.00;100347.13;6159437;23;20022;-76
2023/01/08 00:08:34;;;;;;;1.30;0.70;;;;;;;8.09;100.00;100341.84;6160022;23;20018;-76
2023/01/08 00:11:01;;;;;;;3.78;0.98;;;;;;;8.06;100.00;100332.09;6157875;23;20069;-76
2023/01/08 00:13:30;;;;;;;1.42;1.00;;;;;;;8.04;100.00;100339.72;6159901;23;20014;-76
2023/01/08 00:16:01;;;;;;;6.57;1.20;;;;;;;8.07;100.00;100333.56;6158612;23;20077;-76
2023/01/08 00:18:28;;;;;;;;;;;;;;;8.04;100.00;100318.53;6160559;23;20025;-76
2023/01/08 00:20:54;;;;;;;4.53;1.13;;;;;;;7.99;100.00;100325.16;6159217;23;19992;-77
2023/01/08 00:23:21;;;;;;;3.25;0.88;;;;;;;7.96;100.00;100320.69;6133421;23;20051;-77
2023/01/08 00:25:48;;;;;;;2.67;1.10;;;;;;;7.95;100.00;100327.16;6159622;23;20094;-77
2023/01/08 00:28:15;;;;;;;6.15;0.90;;;;;;;7.94;100.00;100319.66;6159694;23;20018;-80
2023/01/08 00:30:42;;;;;;;3.38;1.02;;;;;;;7.90;100.00;100306.50;6159278;23;20018;-77
2023/01/08 00:33:09;;;;;;;7.35;0.98;;;;;;;7.87;100.00;100302.06;6159046;23;20033;-80
2023/01/08 00:35:39;;;;;;;4.15;1.00;;;;;;;7.88;100.00;100308.13;6159772;23;20018;-77
2023/01/08 00:38:06;;;;;;;7.50;1.42;;;;;;;7.86;100.00;100302.50;6159067;23;20018;-77
2023/01/08 00:40:34;;;;;;;7.18;1.05;;;;;;;7.83;100.00;100306.00;6133781;23;20456;-78
2023/01/08 00:43:02;;;;;;;2.67;1.10;;;;;;;7.80;100.00;100291.72;6132457;23;20539;-78
2023/01/08 00:45:31;;;;;;;1.92;1.38;;;;;;;7.79;100.00;100276.97;6159200;23;20456;-78
2023/01/08 00:47:58;;;;;;;4.03;1.00;;;;;;;7.79;100.00;100271.69;6159208;23;20025;-77
2023/01/08 00:50:25;;;;;;;1.77;1.40;;;;;;;7.78;100.00;100278.16;6160124;23;20065;-79
2023/01/08 00:52:52;;;;;;;5.80;1.55;;;;;;;7.78;100.00;100274.75;6159123;23;20017;-79
2023/01/08 00:55:18;;;;;;;1.75;1.60;;;;;;;7.78;100.00;100275.50;6133790;23;20056;-79
2023/01/08 00:57:45;;;;;;;6.18;1.30;;;;;;;7.80;100.00;100278.47;6133320;23;20022;-79
2023/01/08 01:00:14;;;;;;;3.88;1.73;;;;;;;7.80;100.00;100275.06;6156998;23;20089;-79
2023/01/08 01:02:40;;;;;;;2.50;1.85;;;;;;;7.80;100.00;100267.88;6108980;23;20085;-79
2023/01/08 01:05:09;;;;;;;2.65;1.90;;;;;;;7.81;100.00;100266.69;6158621;23;20049;-80
2023/01/08 01:07:36;;;;;;;3.95;1.90;;;;;;;7.81;100.00;100266.69;6157767;23;20018;-79
2023/01/08 01:10:07;;;;;;;6.53;2.00;;;;;;;7.80;100.00;100273.16;6155455;23;20018;-79
2023/01/08 01:12:36;;;;;;;9.85;2.00;;;;;;;7.80;100.00;100259.91;6133785;23;20491;-79
2023/01/08 01:15:13;;;;;;;6.10;2.40;;;;;;;7.81;100.00;100268.59;6132124;23;20022;-79
2023/01/08 01:17:42;;;;;;;4.50;2.63;;;;;;;7.83;100.00;100261.69;6159865;23;20018;-79
2023/01/08 01:20:12;;;;;;;6.50;2.63;;;;;;;7.87;100.00;100245.69;6159011;23;20410;-79
2023/01/08 01:22:39;;;;;;;2.72;2.40;;;;;;;7.91;100.00;100248.94;6133664;23;20088;-79
2023/01/08 01:25:09;;;;;;;3.72;2.83;;;;;;;7.94;100.00;100248.09;6158914;23;20487;-79
2023/01/08 01:27:35;;;;;;;3.25;2.50;;;;;;;7.96;100.00;100248.41;6159238;23;20014;-78
2023/01/08 01:30:04;;;;;;;4.28;2.50;;;;;;;7.98;100.00;100256.66;6158623;23;20400;-78
2023/01/08 01:32:30;;;;;;;6.00;2.33;;;;;;;8.02;100.00;100249.28;6133027;23;20048;-78
2023/01/08 01:34:56;;;;;;;4.03;1.90;;;;;;;8.02;100.00;100247.38;6159175;23;20021;-78
2023/01/08 01:37:23;;;;;;;2.00;1.85;;;;;;;8.03;100.00;100248.13;6159519;23;20018;-78
2023/01/08 01:39:49;;;;;;;5.68;1.60;;;;;;;8.03;100.00;100246.22;6159140;23;20014;-78
2023/01/08 01:45:17;;;;;;;3.55;1.73;;;;;;;8.05;100.00;100266.97;6158920;23;20022;-79
2023/01/08 01:47:50;;;;;;;2.55;1.48;;;;;;;8.03;100.00;100270.06;6159685;23;20021;-80
2023/01/08 01:50:22;;;;;;;1.92;1.75;;;;;;;8.03;100.00;100256.81;6159748;23;20022;-80
2023/01/08 01:52:53;;;;;;;2.90;1.75;;;;;;;8.04;100.00;100270.81;6159117;23;20021;-80
2023/01/08 01:55:20;;;;;;;3.42;1.80;;;;;;;8.04;100.00;100266.25;6159616;23;20360;-79
2023/01/08 01:58:03;;;;;;;1.80;1.65;;;;;;;8.04;100.00;100271.53;6158693;23;20336;-79
2023/01/08 02:00:32;;;;;;;2.30;1.63;;;;;;;8.07;100.00;100258.59;6159650;23;20025;-77
2023/01/08 02:02:59;;;;;;;4.07;1.52;;;;;;;8.08;100.00;100260.81;6158633;23;20051;-76
2023/01/08 02:05:37;;;;;;;3.20;1.80;;;;;;;8.08;100.00;100270.69;6159683;23;20018;-76
2023/01/08 02:08:11;;;;;;;1.98;1.45;;;;;;;8.06;100.00;100275.69;6156904;23;20049;-77
2023/01/08 02:10:50;;;;;;;6.05;1.60;;;;;;;8.01;100.00;100272.41;6159101;23;20021;-77
2023/01/08 02:13:24;;;;;;;2.42;1.10;;;;;;;8.00;100.00;100278.88;6158682;23;20049;-77
2023/01/08 02:16:04;;;;;;;3.28;1.33;;;;;;;7.99;100.00;100266.81;6131959;23;20317;-79
2023/01/08 02:18:42;;;;;;;2.78;1.35;;;;;;;7.96;100.00;100278.28;6158127;23;20021;-77
2023/01/08 02:21:13;;;;;;;3.58;1.20;;;;;;;7.95;100.00;100265.47;6158739;23;20470;-77
2023/01/08 02:24:01;;;;;;;1.45;1.13;;;;;;;7.93;100.00;100263.25;6159285;23;20045;-76
2023/01/08 02:26:33;;;;;;;1.88;1.40;;;;;;;7.91;100.00;100243.66;6156957;23;20464;-76
2023/01/08 02:29:02;;;;;;;1.52;1.25;;;;;;;7.89;100.00;100240.69;6132604;23;20014;-76
2023/01/08 02:31:31;;;;;;;1.08;0.98;;;;;;;7.87;100.00;100240.38;6159233;23;20479;-77
2023/01/08 02:33:58;;;;;;;0.85;0.80;;;;;;;7.85;100.00;100230.22;6158711;23;20018;-77
2023/01/08 02:36:42;;;;;;;2.65;1.27;;;;;;;7.84;100.00;100235.94;6132791;23;20026;-77
2023/01/08 02:39:43;;;;;;;2.70;1.13;;;;;;;7.82;100.00;100220.47;6158583;23;20018;-77
2023/01/08 02:42:20;;;;;;;1.58;1.08;;;;;;;7.83;100.00;100234.47;6158760;23;20025;-77
2023/01/08 02:44:53;;;;;;;2.72;0.90;;;;;;;7.85;100.00;100232.88;6159364;23;20014;-77
2023/01/08 02:47:28;;;;;;;2.63;1.08;;;;;;;7.82;100.00;100220.47;6159236;23;20022;-77
2023/01/08 02:50:09;;;;;;;3.90;1.13;;;;;;;7.83;100.00;100219.31;6132623;23;20029;-79
2023/01/08 02:52:49;;;;;;;1.30;1.10;;;;;;;7.82;100.00;100228.41;6133340;23;20014;-78
2023/01/08 02:55:18;;;;;;;1.52;1.00;;;;;;;7.82;100.00;100227.69;6158679;23;20080;-78
2023/01/08 02:57:45;;;;;;;2.05;1.15;;;;;;;7.83;100.00;100219.31;6159023;23;20049;-78
2023/01/08 03:00:13;;;;;;;1.70;1.30;;;;;;;7.84;100.00;100235.94;6132000;23;20486;-77
2023/01/08 03:02:41;;;;;;;1.75;1.40;;;;;;;7.85;100.00;100224.16;6131607;23;20022;-78
2023/01/08 03:05:23;;;;;;;2.30;1.55;;;;;;;7.85;100.00;100226.81;6158597;23;20057;-79
2023/01/08 03:07:50;;;;;;;1.73;1.40;;;;;;;7.83;100.00;100221.22;6158418;23;20045;-79
2023/01/08 03:10:21;;;;;;;1.85;1.55;;;;;;;7.83;100.00;100221.94;6158832;23;20088;-79
2023/01/08 03:12:53;;;;;;;1.83;1.70;;;;;;;7.82;100.00;100223.13;6159191;23;20018;-79
2023/01/08 03:15:26;;;;;;;2.15;1.90;;;;;;;7.84;100.00;100223.44;6132080;23;20026;-79
2023/01/08 03:17:57;;;;;;;2.30;1.70;;;;;;;7.85;100.00;100219.63;6158316;23;20026;-79
2023/01/08 03:20:24;;;;;;;;;;;;;;;7.85;100.00;100218.88;6159681;23;20496;-80
2023/01/08 03:22:55;;;;;;;3.25;1.92;;;;;;;7.84;100.00;100212.84;6158478;23;20339;-79
2023/01/08 03:25:25;;;;;;;3.47;1.77;;;;;;;7.83;100.00;100223.88;6132544;23;20014;-80
2023/01/08 03:27:57;;;;;;;2.40;2.20;;;;;;;7.81;100.00;100224.28;6133803;23;20022;-80
2023/01/08 03:30:24;;;;;;;3.25;2.03;;;;;;;7.80;100.00;100214.13;6162580;23;20037;-79
2023/01/08 03:32:54;;;;;;;2.38;2.25;;;;;;;7.79;100.00;100220.59;6135139;23;20452;-79
2023/01/08 03:35:23;;;;;;;3.20;2.38;;;;;;;7.78;100.00;100221.75;6162374;23;20006;-79
2023/01/08 03:37:56;;;;;;;11.05;2.78;;;;;;;7.77;100.00;100217.63;6135125;23;20361;-80
2023/01/08 03:40:33;;;;;;;5.43;2.60;;;;;;;7.77;100.00;100222.94;6162354;23;20022;-79
2023/01/08 03:43:00;;;;;;;3.78;2.88;;;;;;;7.76;100.00;100211.59;6134907;23;20510;-79
2023/01/08 03:45:29;;;;;;;2.92;2.58;;;;;;;7.75;100.00;100206.72;6135503;23;20077;-79
2023/01/08 03:47:57;;;;;;;3.90;2.42;;;;;;;7.74;100.00;100199.94;6161318;23;20073;-77
2023/01/08 03:50:27;;;;;;;5.47;2.47;;;;;;;7.72;100.00;100200.38;6161871;23;20440;-80
2023/01/08 03:52:53;;;;;;;2.80;2.60;;;;;;;7.72;100.00;100194.34;6160740;23;20018;-79
2023/01/08 03:55:20;;;;;;;3.10;2.80;;;;;;;7.72;100.00;100204.94;6160194;23;20105;-79
2023/01/08 03:57:47;;;;;;;2.97;2.75;;;;;;;7.69;100.00;100201.97;6161917;23;20077;-77
2023/01/08 04:00:14;;;;;;;3.28;2.65;;;;;;;7.70;100.00;100208.03;6161446;23;20417;-79
2023/01/08 04:02:43;;;;;;;2.80;2.60;;;;;;;7.69;100.00;100214.50;6161994;23;20045;-80
2023/01/08 04:05:10;;;;;;;4.30;2.80;;;;;;;7.69;100.00;100209.19;6161234;23;20018;-79
2023/01/08 04:07:37;;;;;;;3.97;2.17;;;;;;;7.69;100.00;100209.19;6161318;23;20018;-79
2023/01/08 04:10:04;;;;;;;4.18;2.80;;;;;;;7.68;100.00;100219.06;6134700;23;20093;-79
2023/01/08 04:12:31;;;;;;;3.97;2.33;;;;;;;7.68;100.00;100213.75;6135942;23;20018;-77
2023/01/08 04:14:57;;;;;;;5.38;2.72;;;;;;;7.68;100.00;100216.41;6160980;23;20014;-79
2023/01/08 04:17:24;;;;;;;3.13;2.83;;;;;;;7.68;100.00;100216.41;6135234;23;20558;-79
2023/01/08 04:19:50;;;;;;;2.90;2.20;;;;;;;7.67;100.00;100219.47;6161214;23;20014;-79
2023/01/08 04:22:17;;;;;;;5.30;2.33;;;;;;;7.66;100.00;100210.78;6134699;23;20061;-77
2023/01/08 04:24:43;;;;;;;4.18;2.28;;;;;;;7.65;100.00;100182.81;6161824;23;20014;-77
2023/01/08 04:27:10;;;;;;;4.90;2.03;;;;;;;7.64;100.00;100186.66;6160858;23;20022;-79
2023/01/08 04:29:36;;;;;;;7.82;2.38;;;;;;;7.60;100.00;100188.66;6135005;23;20164;-79
2023/01/08 04:32:03;;;;;;;2.20;1.60;;;;;;;7.59;100.00;100191.78;6134472;23;20018;-79
2023/01/08 04:34:30;;;;;;;2.88;1.30;;;;;;;7.58;100.00;100193.69;6161781;23;20021;-79
2023/01/08 04:36:56;;;;;;;2.50;1.70;;;;;;;7.57;100.00;100183.53;6160195;23;20026;-80
2023/01/08 04:39:22;;;;;;;4.05;1.70;;;;;;;7.55;100.00;100189.25;6159801;23;20495;-80
2023/01/08 04:41:49;;;;;;;2.55;1.55;;;;;;;7.54;100.00;100193.06;6132912;23;20026;-79
2023/01/08 04:44:16;;;;;;;2.30;1.20;;;;;;;7.52;100.00;100186.72;6159675;23;20018;-80
2023/01/08 04:46:42;;;;;;;2.17;1.10;;;;;;;7.52;100.00;100186.72;6159927;23;20022;-77
2023/01/08 04:49:10;;;;;;;1.85;1.08;;;;;;;7.51;100.00;100183.34;6132669;23;20024;-77
2023/01/08 04:51:36;;;;;;;2.40;1.05;;;;;;;7.49;100.00;100159.19;6159196;23;20440;-77
2023/01/08 04:54:03;;;;;;;2.35;1.33;;;;;;;7.48;100.00;100165.66;6158892;23;20018;-77
2023/01/08 04:56:30;;;;;;;3.88;1.08;;;;;;;7.47;100.00;100174.03;6159626;23;20022;-77
2023/01/08 04:58:57;;;;;;;3.85;1.02;;;;;;;7.42;100.00;100175.31;6158883;23;20025;-77
2023/01/08 05:01:26;;;;;;;4.45;1.08;;;;;;;7.39;100.00;100178.09;6159601;23;20014;-77
2023/01/08 05:03:58;;;;;;;8.45;1.30;;;;;;;7.34;100.00;100187.31;6159113;23;20062;-79
2023/01/08 05:06:27;;;;;;;2.50;0.90;;;;;;;7.32;100.00;100179.81;6159269;23;20022;-77
2023/01/08 05:08:53;;;;;;;2.38;0.80;;;;;;;7.31;100.00;100178.31;6158992;23;20444;-79
2023/01/08 05:11:20;;;;;;;1.63;0.95;;;;;;;7.30;100.00;100181.41;6159630;23;20037;-80
2023/01/08 05:13:48;;;;;;;3.55;0.93;;;;;;;7.30;100.00;100181.41;6159729;23;20022;-80
2023/01/08 05:16:15;;;;;;;2.08;0.93;;;;;;;7.29;100.00;100172.72;6159141;23;20085;-77
2023/01/08 05:18:43;;;;;;;2.35;1.00;;;;;;;7.28;100.00;100165.19;6159518;23;20525;-80
2023/01/08 05:21:12;;;;;;;1.17;0.77;;;;;;;7.26;100.00;100172.84;6158485;23;20081;-80
2023/01/08 05:23:38;;;;;;;4.85;1.00;;;;;;;7.24;100.00;100167.22;6159520;23;20022;-79
2023/01/08 05:26:06;;;;;;;0.90;0.88;;;;;;;7.22;100.00;100161.63;6132475;23;20056;-79
2023/01/08 05:28:33;;;;;;;2.33;0.90;;;;;;;7.19;100.00;100168.53;6159667;23;20125;-77
2023/01/08 05:30:59;;;;;;;2.33;1.25;;;;;;;7.16;100.00;100177.34;6132850;23;20021;-80
2023/01/08 05:33:26;;;;;;;5.15;1.05;;;;;;;7.13;100.00;100175.56;6159492;23;20081;-79
2023/01/08 05:35:53;;;;;;;4.70;1.00;;;;;;;7.09;100.00;100174.94;6132175;23;20437;-77
2023/01/08 05:38:19;;;;;;;1.60;0.90;;;;;;;7.07;100.00;100179.16;6159365;23;20018;-77
2023/01/08 05:40:46;;;;;;;7.00;1.20;;;;;;;7.04;100.00;100178.13;6159509;23;20037;-79
2023/01/08 05:43:12;;;;;;;4.28;1.38;;;;;;;7.02;100.00;100180.44;6158764;23;20018;-78
2023/01/08 05:45:39;;;;;;;4.78;1.02;;;;;;;6.99;100.00;100174.09;6133389;23;20078;-78
2023/01/08 05:48:06;;;;;;;5.50;1.20;;;;;;;6.97;100.00;100168.50;6158598;23;20021;-78
2023/01/08 05:50:34;;;;;;;2.88;1.17;;;;;;;6.95;100.00;100172.72;6158646;23;20050;-78
2023/01/08 05:53:01;;;;;;;4.88;1.20;;;;;;;6.91;100.00;100172.84;6158916;23;20024;-78
2023/01/08 05:55:27;;;;;;;1.73;0.90;;;;;;;6.91;100.00;100180.03;6159260;23;20311;-79
2023/01/08 05:57:54;;;;;;;3.67;1.30;;;;;;;6.88;100.00;100181.63;6158488;23;20089;-78
2023/01/08 06:00:20;;;;;;;4.93;1.33;;;;;;;6.86;100.00;100176.03;6159472;23;20429;-78
2023/01/08 06:02:47;;;;;;;2.33;1.42;;;;;;;6.83;100.00;100168.94;6132844;23;20432;-78
2023/01/08 06:05:14;;;;;;;4.00;1.40;;;;;;;6.81;100.00;100176.56;6159164;23;20093;-78
2023/01/08 06:07:41;;;;;;;3.10;1.58;;;;;;;6.77;100.00;100173.31;6159251;23;20018;-78
2023/01/08 06:10:08;;;;;;;3.55;1.50;;;;;;;6.75;100.00;100174.91;6132357;23;20048;-78
2023/01/08 06:12:35;;;;;;;2.72;1.75;;;;;;;6.70;100.00;100170.91;6159361;23;20165;-78
2023/01/08 06:15:02;;;;;;;5.57;1.30;;;;;;;6.67;100.00;100172.47;6158150;23;20441;-78
2023/01/08 06:17:29;;;;;;;3.53;1.75;;;;;;;6.62;100.00;100170.38;6158693;23;20077;-78
2023/01/08 06:19:58;;;;;;;2.35;1.48;;;;;;;6.61;100.00;100170.78;6158790;23;20010;-78
2023/01/08 06:22:26;;;;;;;2.15;1.30;;;;;;;6.56;100.00;100166.78;6132844;23;20018;-78
2023/01/08 06:24:52;;;;;;;3.67;1.58;;;;;;;6.53;100.00;100169.53;6158831;23;20455;-78
2023/01/08 06:27:19;;;;;;;4.05;1.80;;;;;;;6.50;100.00;100168.47;6133414;23;20013;-78
2023/01/08 06:29:45;;;;;;;1.92;1.45;;;;;;;6.51;100.00;100161.28;6159448;23;20045;-78
2023/01/08 06:32:12;;;;;;;4.88;1.55;;;;;;;6.49;100.00;100167.00;6158028;23;20415;-78
2023/01/08 06:34:38;;;;;;;4.93;1.50;;;;;;;6.47;100.00;100174.59;6159583;23;20081;-78
2023/01/08 06:37:05;;;;;;;3.17;1.38;;;;;;;6.45;100.00;100170.91;6158466;23;20046;-78
2023/01/08 06:39:31;;;;;;;4.20;2.10;;;;;;;6.42;100.00;100180.41;6159335;23;20014;-78
2023/01/08 06:41:58;;;;;;;4.95;2.20;;;;;;;6.39;100.00;100177.91;6132030;23;20516;-78
2023/01/08 06:44:24;;;;;;;3.35;1.40;;;;;;;6.35;100.00;100181.41;6133386;23;20834;-78
2023/01/08 06:46:51;;;;;;;2.47;1.40;;;;;;;6.34;100.00;100190.50;6157884;23;20014;-77
2023/01/08 06:49:18;;;;;;;5.82;1.98;;;;;;;6.31;100.00;100182.66;6159191;23;20022;-77
2023/01/08 06:51:45;;;;;;;3.58;1.63;;;;;;;6.30;100.00;100181.19;6133006;23;20041;-77
2023/01/08 06:54:13;;;;;;;7.50;1.80;;;;;;;6.26;100.00;100183.19;6158393;23;20022;-78
2023/01/08 06:56:39;;;;;;;3.05;1.85;;;;;;;6.22;100.00;100180.66;6159235;23;20018;-77
2023/01/08 06:59:19;;;;;;;4.93;1.88;;;;;;;6.21;100.00;100178.44;6159141;23;20459;-77
2023/01/08 07:01:45;;;;;;;3.75;1.70;;;;;;;6.18;100.00;100182.66;6157913;23;20482;-78
2023/01/08 07:04:12;;;;;;;3.08;1.75;;;;;;;6.15;100.00;100188.78;6132683;23;20022;-78
2023/01/08 07:06:39;;;;;;;2.85;1.85;;;;;;;6.12;100.00;100183.59;6159229;23;20013;-78
2023/01/08 07:09:05;;;;;;;2.85;2.10;;;;;;;6.06;100.00;100193.94;6158655;23;20042;-78
2023/01/08 07:11:32;;;;;;;7.30;2.10;;;;;;;6.03;100.00;100178.94;6159068;23;20440;-78
2023/01/08 07:13:59;;;;;;;4.78;1.88;;;;;;;6.00;100.00;100191.06;6132223;23;20552;-78
2023/01/08 07:16:25;;;;;;;6.63;1.98;;;;;;;5.99;100.00;100196.81;6156551;23;20022;-77
2023/01/08 07:18:52;;;;;;;2.17;1.50;;;;;;;5.98;100.00;100192.69;6132026;23;20021;-77
2023/01/08 07:21:20;;;;;;;3.45;1.70;;;;;;;5.95;100.00;100178.41;6133083;23;20024;-78
2023/01/08 07:23:48;;;;;;;3.58;1.52;;;;;;;5.94;100.00;100184.13;6159091;23;20053;-77
2023/01/08 07:26:15;;;;;;;3.78;1.90;;;;;;;5.93;100.00;100182.63;6159372;23;20018;-77
2023/01/08 07:28:44;;;;;;;2.70;1.30;;;;;;;5.91;100.00;100182.31;6158987;23;20018;-78
2023/01/08 07:31:10;;;;;;;1.98;1.20;;;;;;;5.91;100.00;100182.31;6157857;23;20014;-78
2023/01/08 07:33:37;;;;;;;3.50;1.38;;;;;;;5.90;100.00;100184.22;6156677;23;20089;-78
2023/01/08 07:36:04;;;;;;;3.33;1.70;;;;;;;5.91;100.00;100177.03;6130633;23;20018;-78
2023/01/08 07:38:31;;;;;;;2.38;1.50;;;;;;;5.90;100.00;100175.56;6130770;23;20526;-78
2023/01/08 07:40:58;;;;;;;5.00;1.42;;;;;;;5.87;100.00;100163.88;6156820;23;20022;-78
2023/01/08 07:43:25;;;;;;;5.72;1.77;;;;;;;5.86;100.00;100164.31;6159134;23;20037;-77
2023/01/08 07:45:51;;;;;;;5.53;1.42;;;;;;;5.86;100.00;100164.31;6158264;23;20017;-80
2023/01/08 07:48:18;;;;;;;5.55;1.30;;;;;;;5.84;100.00;100166.63;6158943;23;20010;-79
2023/01/08 07:50:44;;;;;;;5.53;1.50;;;;;;;5.83;100.00;100162.50;6159118;23;20018;-79
2023/01/08 07:53:16;;;;;;;4.40;1.63;;;;;;;5.83;100.00;100154.59;6158981;23;20018;-79
2023/01/08 07:55:42;;;;;;;2.42;1.55;;;;;;;5.80;100.00;100161.44;6159138;23;20097;-80
2023/01/08 07:58:13;;;;;;;4.35;1.35;;;;;;;5.78;100.00;100155.84;6132577;23;20025;-80
2023/01/08 08:00:40;;;;;;;2.07;1.30;;;;;;;5.75;100.00;100163.84;6132322;23;20459;-80
2023/01/08 08:03:10;;;;;;;2.65;1.45;;;;;;;5.74;100.00;100165.03;6158801;23;20101;-83
2023/01/08 08:05:37;;;;;;;3.35;1.20;;;;;;;5.72;100.00;100157.50;6159124;23;20014;-85
2023/01/08 08:08:08;;;;;;;5.85;1.70;;;;;;;5.73;100.00;100163.53;6158731;23;20472;-82
2023/01/08 08:10:35;;;;;;;3.95;1.83;;;;;;;5.72;100.00;100162.06;6132730;23;20475;-81
2023/01/08 08:13:02;;;;;;;7.13;1.35;;;;;;;5.72;100.00;100160.16;6132507;23;20022;-81
2023/01/08 08:15:28;;;;;;;2.63;1.55;;;;;;;5.72;100.00;100172.63;6133309;23;20022;-82
2023/01/08 08:17:55;;;;;;;2.55;1.27;;;;;;;5.73;100.00;100163.53;6158475;23;20053;-81
2023/01/08 08:20:21;;;;;;;4.85;1.33;;;;;;;5.73;100.00;100161.63;6160421;23;20075;-83
2023/01/08 08:22:48;;;;;;;6.97;1.63;;;;;;;5.74;100.00;100163.13;6109256;23;20456;-81
2023/01/08 08:25:15;;;;;;;8.20;1.88;;;;;;;5.75;100.00;100171.78;6134521;23;20014;-81
2023/01/08 08:27:42;;;;;;;3.17;1.98;;;;;;;5.75;100.00;100166.50;6133215;23;20028;-79
2023/01/08 08:30:10;;;;;;;5.60;1.73;;;;;;;5.75;100.00;100161.22;6133292;23;20017;-84
2023/01/08 08:32:37;;;;;;;4.22;1.17;;;;;;;5.76;100.00;100166.06;6160126;23;20018;-79
2023/01/08 08:35:04;;;;;;;7.07;1.45;;;;;;;5.77;100.00;100154.34;6159726;23;20025;-79
2023/01/08 08:37:31;;;;;;;8.68;1.40;;;;;;;5.78;100.00;100153.19;6159961;23;20025;-79
2023/01/08 08:39:57;;;;;;;4.00;1.27;;;;;;;5.78;100.00;100141.88;6157707;23;20475;-78
2023/01/08 08:42:25;;;;;;;10.93;1.75;;;;;;;5.79;100.00;100132.81;6133035;23;20026;-78
2023/01/08 08:44:51;;;;;;;6.90;1.23;;;;;;;5.79;100.00;100135.44;6159831;23;20345;-78
2023/01/08 08:47:18;;;;;;;6.15;1.15;;;;;;;5.78;100.00;100126.78;6134244;23;20021;-78
2023/01/08 08:49:44;;;;;;;6.80;1.42;;;;;;;5.77;100.00;100122.66;6160164;23;20013;-77
2023/01/08 08:52:11;;;;;;;6.22;1.25;;;;;;;5.76;100.00;100112.50;6159795;23;20026;-77
2023/01/08 08:54:40;;;;;;;7.78;1.27;;;;;;;5.76;100.00;100115.16;6159982;23;20080;-78
2023/01/08 08:57:09;;;;;;;5.80;1.20;;;;;;;5.74;100.00;100120.84;6132414;23;20018;-78
2023/01/08 08:59:36;;;;;;;5.55;1.67;;;;;;;5.72;100.00;100107.34;6159857;23;20025;-78
2023/01/08 09:02:03;;;;;;;5.22;1.35;;;;;;;5.70;100.00;100117.56;6159675;23;20372;-79
2023/01/08 09:04:32;;;;;;;3.55;1.15;;;;;;;5.70;100.00;100114.94;6160287;23;20085;-80
2023/01/08 09:06:59;;;;;;;4.07;1.10;;;;;;;5.69;100.00;100111.56;6133301;23;20047;-79
2023/01/08 09:09:26;;;;;;;5.50;1.73;;;;;;;5.68;100.00;100114.63;6133740;23;20074;-79
2023/01/08 09:11:53;;;;;;;2.50;1.13;;;;;;;5.69;100.00;100111.56;6132900;23;20022;-79
2023/01/08 09:14:20;;;;;;;6.97;1.48;;;;;;;5.73;100.00;100113.34;6133921;23;20082;-79
2023/01/08 09:16:47;;;;;;;4.28;1.35;;;;;;;5.76;100.00;100112.50;6159661;23;20491;-79
2023/01/08 09:19:13;;;;;;;2.90;1.73;;;;;;;5.81;100.00;100119.91;6160176;23;20022;-79
2023/01/08 09:21:40;;;;;;;4.82;1.70;;;;;;;5.84;100.00;100119.09;6159957;23;20093;-79
2023/01/08 09:24:07;;;;;;;9.45;1.70;;;;;;;5.88;100.00;100122.38;6132645;23;20022;-78
2023/01/08 09:26:33;;;;;;;8.57;1.73;;;;;;;5.92;100.00;100123.03;6132481;23;20455;-79
2023/01/08 09:29:00;;;;;;;9.65;2.33;;;;;;;5.95;100.00;100116.91;6159257;23;20018;-78
2023/01/08 09:31:26;;;;;;;13.88;2.17;;;;;;;5.98;99.98;100116.06;6159642;23;20018;-80
2023/01/08 09:33:53;;;;;;;5.25;2.10;;;;;;;6.02;100.00;100122.69;6107431;23;20018;-78
2023/01/08 09:36:20;;;;;;;7.43;2.17;;;;;;;6.05;99.81;100123.75;6160150;23;20132;-78
2023/01/08 09:38:46;;;;;;;6.15;2.00;;;;;;;6.09;99.36;100124.41;6159617;23;20136;-78
2023/01/08 09:41:20;;;;;;;7.63;2.40;;;;;;;6.16;99.44;100121.53;6158631;23;20415;-78
2023/01/08 09:43:50;;;;;;;6.65;1.73;;;;;;;6.20;98.94;100126.72;6133139;23;20457;-77
2023/01/08 09:46:20;;;;;;;3.67;1.58;;;;;;;6.24;99.00;100120.19;6133722;23;20147;-77
2023/01/08 09:48:48;;;;;;;7.07;2.60;;;;;;;6.28;98.96;100114.78;6159569;23;20014;-78
2023/01/08 09:51:18;;;;;;;6.60;1.90;;;;;;;6.30;99.06;100121.13;6159854;23;20018;-78
2023/01/08 09:53:53;;;;;;;5.43;2.20;;;;;;;6.35;98.83;100115.31;6133261;23;20025;-77
2023/01/08 09:56:20;;;;;;;7.97;3.50;;;;;;;6.40;98.51;100119.28;6159426;23;20053;-80
2023/01/08 09:58:53;;;;;;;6.78;2.38;;;;;;;6.45;98.62;100118.75;6133316;23;20412;-79
2023/01/08 10:01:25;;;;;;;6.28;1.73;;;;;;;6.48;98.32;100117.91;6159649;23;20081;-79
2023/01/08 10:04:18;;;;;;;7.45;2.17;;;;;;;6.54;98.53;100112.84;6133230;23;20456;-78
2023/01/08 10:06:49;;;;;;;8.50;2.38;;;;;;;6.59;98.23;100120.22;6133378;23;20032;-77
2023/01/08 10:09:20;;;;;;;9.98;2.10;;;;;;;6.62;98.41;100114.84;6159453;23;20396;-77
2023/01/08 10:11:49;;;;;;;6.32;1.52;;;;;;;6.65;98.35;100107.94;6133346;23;20144;-78
2023/01/08 10:14:22;;;;;;;7.88;2.92;;;;;;;6.67;98.52;100105.63;6133600;23;20014;-78
2023/01/08 10:16:54;;;;;;;11.32;2.38;;;;;;;6.73;98.63;100106.56;6159139;23;20466;-77
2023/01/08 10:19:22;;;;;;;10.50;2.53;;;;;;;6.79;98.69;100102.19;6108947;23;20022;-78
2023/01/08 10:21:49;;;;;;;8.43;1.85;;;;;;;6.88;98.44;100102.25;6133202;23;20475;-77
2023/01/08 10:24:16;;;;;;;4.15;2.20;;;;;;;6.93;98.03;100101.72;6159285;23;20022;-78
2023/01/08 10:26:42;;;;;;;9.25;2.47;;;;;;;6.98;98.46;100087.94;6133587;23;20018;-78
2023/01/08 10:29:17;;;;;;;8.43;1.85;;;;;;;7.06;98.00;100091.09;6159153;23;20025;-77
2023/01/08 10:31:53;;;;;;;3.92;1.58;;;;;;;7.10;97.87;100090.97;6133712;23;20357;-77
2023/01/08 10:34:52;;;;;;;8.35;1.73;;;;;;;7.21;97.63;100083.38;6160000;23;20025;-78
2023/01/08 10:37:43;;;;;;;7.28;1.45;;;;;;;7.30;97.63;100091.38;6132414;23;20895;-81
2023/01/08 10:40:24;;;;;;;8.80;2.07;;;;;;;7.38;97.16;100074.06;6108193;23;20025;-78
2023/01/08 10:42:51;;;;;;;5.38;1.80;;;;;;;7.48;97.22;100072.22;6133144;23;20406;-78
2023/01/08 10:45:24;;;;;;;9.35;1.70;;;;;;;7.56;96.96;100065.50;6132961;23;20524;-77
2023/01/08 10:47:56;;;;;;;5.47;2.15;;;;;;;7.63;96.75;100060.66;6158729;23;20018;-77
2023/01/08 10:50:29;;;;;;;6.07;2.38;;;;;;;7.67;96.19;100058.63;6159352;23;20021;-78
2023/01/08 10:52:59;;;;;;;8.82;1.88;;;;;;;7.77;95.73;100069.25;6158632;23;20018;-77
2023/01/08 10:55:36;;;;;;;2.53;1.38;;;;;;;7.80;95.68;100065.75;6159418;23;20018;-77
2023/01/08 10:58:13;;;;;;;7.00;1.88;;;;;;;7.81;95.25;100061.91;6158629;23;20021;-77
2023/01/08 11:00:40;;;;;;;9.65;1.58;;;;;;;7.78;95.09;100055.56;6159035;23;20384;-77
2023/01/08 11:03:17;;;;;;;6.55;1.60;;;;;;;7.81;95.32;100056.63;6158506;23;20018;-77
2023/01/08 11:05:44;;;;;;;8.65;1.40;;;;;;;7.86;95.11;100048.84;6159022;23;20018;-77
2023/01/08 11:08:20;;;;;;;7.38;1.73;;;;;;;7.90;94.84;100052.09;6158092;23;20018;-77
2023/01/08 11:10:54;;;;;;;11.35;2.13;;;;;;;7.92;94.18;100044.44;6158572;23;20097;-76
2023/01/08 11:13:22;;;;;;;2.55;1.30;;;;;;;7.96;94.26;100034.44;6132552;23;20028;-76
2023/01/08 11:16:11;;;;;;;4.32;1.25;;;;;;;7.99;93.94;100044.19;6158100;23;20413;-77
2023/01/08 11:18:47;;;;;;;7.05;1.80;;;;;;;8.02;93.85;100037.22;6158826;23;20407;-77
2023/01/08 11:21:25;;;;;;;8.23;1.45;;;;;;;8.02;93.85;100029.28;6132743;23;20028;-77
2023/01/08 11:24:10;;;;;;;6.55;1.80;;;;;;;8.06;93.49;100031.78;6157856;23;20029;-76
2023/01/08 11:26:40;;;;;;;8.75;1.38;;;;;;;8.10;93.32;100019.13;6158880;23;20014;-76
2023/01/08 11:29:37;;;;;;;3.53;1.30;;;;;;;8.17;93.58;100019.59;6158583;23;20021;-77
2023/01/08 11:32:14;;;;;;;2.38;1.30;;;;;;;8.29;93.04;100016.09;6155554;23;20520;-77
2023/01/08 11:34:52;;;;;;;7.50;1.77;;;;;;;8.26;92.88;100009.00;6158870;23;20026;-77
2023/01/08 11:37:26;;;;;;;2.85;1.65;;;;;;;8.23;92.78;100007.25;6132537;23;20014;-77
2023/01/08 11:39:54;;;;;;;2.33;1.25;;;;;;;8.22;92.69;100000.47;6158474;23;20352;-77